createdAt,value
2022-11-26T00:00:16.154Z,0.75
2022-11-26T00:10:24.243Z,0.52
2022-11-26T00:20:30.485Z,0.70
2022-11-26T00:30:31.888Z,0.90
2022-11-26T00:40:33.680Z,0.60
2022-11-26T00:50:41.045Z,0.68
2022-11-26T01:00:42.572Z,0.60
2022-11-26T01:10:44.081Z,0.60
2022-11-26T01:20:46.254Z,0.77
2022-11-26T01:30:47.746Z,0.60
2022-11-26T01:41:09.513Z,0.60
2022-11-26T01:51:12.283Z,0.70
2022-11-26T02:01:13.951Z,0.52
2022-11-26T02:11:21.292Z,0.70
2022-11-26T02:21:27.321Z,0.60
2022-11-26T02:31:47.195Z,0.47
2022-11-26T02:41:51.238Z,0.60
2022-11-26T02:51:54.765Z,0.57
2022-11-26T03:02:21.308Z,0.55
2022-11-26T03:12:22.989Z,0.55
2022-11-26T03:22:24.624Z,1.02
2022-11-26T03:32:26.265Z,0.80
2022-11-26T03:42:27.919Z,0.55
2022-11-26T03:52:29.446Z,0.50
2022-11-26T04:02:30.981Z,0.50
2022-11-26T04:12:32.430Z,0.68
2022-11-26T04:22:33.987Z,0.50
2022-11-26T04:32:36.965Z,0.40
2022-11-26T04:42:38.497Z,0.60
2022-11-26T04:52:40.014Z,0.52
2022-11-26T05:02:41.500Z,0.40
2022-11-26T05:12:42.984Z,0.70
2022-11-26T05:22:44.440Z,0.57
2022-11-26T05:32:45.887Z,0.55
2022-11-26T05:42:47.343Z,0.40
2022-11-26T05:52:48.741Z,0.40
2022-11-26T06:02:50.438Z,0.60
2022-11-26T06:12:52.061Z,0.30
2022-11-26T06:22:53.500Z,0.52
2022-11-26T06:32:55.003Z,0.40
2022-11-26T06:42:56.461Z,0.45
2022-11-26T06:52:57.890Z,0.40
2022-11-26T07:02:59.424Z,0.40
2022-11-26T07:13:00.909Z,0.43
2022-11-26T07:23:02.866Z,0.60
2022-11-26T07:33:04.335Z,0.70
2022-11-26T07:43:05.845Z,0.40
2022-11-26T07:53:07.649Z,1.30
2022-11-26T08:03:09.105Z,1.50
2022-11-26T08:13:10.495Z,1.40
2022-11-26T08:23:11.984Z,1.40
2022-11-26T08:33:13.863Z,1.20
2022-11-26T08:43:15.383Z,1.40
2022-11-26T08:53:17.005Z,1.15
2022-11-26T09:03:18.504Z,1.10
2022-11-26T09:13:21.364Z,1.00
2022-11-26T09:23:22.860Z,1.25
2022-11-26T09:33:24.532Z,0.90
2022-11-26T09:43:57.781Z,1.20
2022-11-26T09:54:01.340Z,1.35
2022-11-26T10:04:07.265Z,1.08
2022-11-26T10:14:40.360Z,0.90
2022-11-26T10:24:42.960Z,1.33
2022-11-26T10:34:49.947Z,1.30
2022-11-26T10:44:52.652Z,0.90
2022-11-26T10:55:25.113Z,1.15
2022-11-26T11:05:27.774Z,1.10
2022-11-26T11:15:32.157Z,1.20
2022-11-26T11:25:39.044Z,1.50
2022-11-26T11:35:40.665Z,1.20
2022-11-26T11:45:48.559Z,1.20
2022-11-26T11:56:11.732Z,1.13
2022-11-26T12:06:16.628Z,1.20
2022-11-26T12:16:20.398Z,1.13
2022-11-26T12:26:21.784Z,1.65
2022-11-26T12:36:28.630Z,1.52
2022-11-26T12:47:14.895Z,1.42
2022-11-26T12:57:30.566Z,1.52
2022-11-26T13:17:48.457Z,1.77
2022-11-26T13:27:58.245Z,1.60
2022-11-26T13:38:19.374Z,1.90
2022-11-26T13:48:31.687Z,1.65
2022-11-26T13:58:41.077Z,1.85
2022-11-26T14:08:46.280Z,2.03
2022-11-26T14:18:53.647Z,1.98
2022-11-26T14:29:05.085Z,2.22
2022-11-26T14:39:12.989Z,1.60
2022-11-26T14:49:20.747Z,1.80
2022-11-26T14:59:22.261Z,1.80
2022-11-26T15:09:26.094Z,1.50
2022-11-26T15:19:31.889Z,2.00
2022-11-26T15:29:36.769Z,1.83
2022-11-26T15:39:38.277Z,1.77
2022-11-26T15:49:40.320Z,2.38
2022-11-26T15:59:45.364Z,1.90
2022-11-26T16:09:49.601Z,1.90
2022-11-26T16:19:53.489Z,2.10
2022-11-26T16:29:55.182Z,2.20
2022-11-26T16:40:04.977Z,1.75
2022-11-26T16:50:13.335Z,1.88
2022-11-26T17:00:21.961Z,1.73
2022-11-26T17:10:25.770Z,1.65
2022-11-26T17:20:27.489Z,1.88
2022-11-26T17:30:29.049Z,1.67
2022-11-26T17:40:30.696Z,1.60
2022-11-26T17:50:32.816Z,1.90
2022-11-26T18:00:34.223Z,1.50
2022-11-26T18:10:39.229Z,1.70
2022-11-26T18:20:42.919Z,1.80
2022-11-26T18:30:44.910Z,1.75
2022-11-26T18:40:46.442Z,1.70
2022-11-26T18:50:56.911Z,1.83
2022-11-26T19:00:58.742Z,1.80
2022-11-26T19:11:00.313Z,1.38
2022-11-26T19:21:02.641Z,2.17
2022-11-26T19:31:06.874Z,1.52
2022-11-26T19:41:08.459Z,1.30
2022-11-26T19:51:11.336Z,1.58
2022-11-26T20:01:15.353Z,1.60
2022-11-26T20:11:17.972Z,1.23
2022-11-26T20:21:25.509Z,1.48
2022-11-26T20:31:27.008Z,1.42
2022-11-26T20:41:29.112Z,1.45
2022-11-26T20:51:30.740Z,1.27
2022-11-26T21:01:32.439Z,1.45
2022-11-26T21:11:34.513Z,1.20
2022-11-26T21:21:35.985Z,1.20
2022-11-26T21:31:38.206Z,1.40
2022-11-26T21:41:39.656Z,1.80
2022-11-26T21:51:41.228Z,1.10
2022-11-26T22:01:42.881Z,1.00
2022-11-26T22:11:45.492Z,1.10
2022-11-26T22:21:47.032Z,1.10
2022-11-26T22:31:50.241Z,0.82
2022-11-26T22:41:51.760Z,1.30
2022-11-26T22:51:53.220Z,1.10
2022-11-26T23:01:55.290Z,1.00
2022-11-26T23:11:56.760Z,1.40
2022-11-26T23:21:58.464Z,0.95
2022-11-26T23:32:00.060Z,0.80
2022-11-26T23:42:01.653Z,1.20
2022-11-26T23:52:03.289Z,1.02
